Arriba, Colorado
Current Conditions -  °F | °C
As of 5:55 AM on Monday 22 Dec 2014 (Local Time) from KLIC Reporting Station
Broken Clouds Broken Clouds  
Wind Chill: 21°   Ceiling: 12000
Heat Index: 30°   Visibility: 10mi
Dew Point: 24°   Wind: 12mph
Humidity: 79%   Direction: 320°NW
Pressure: 29.74"   Gusts: NA
Location:  39.29°N, 103.28°W
Report Text: KLIC 221255Z AUTO 32010KT 10SM SCT095 BKN120 M01/M04 A2974 RMK AO2 SLP063 T10111044
Loading
Personal Weather Stations






























Interactive Weather Map New forecast layout! Learn more

10-Day Weather Forecast

Advertisements
Track Severe Weather on mobile